Rib Lake, WI

4:29 PM CDT on September 16, 2014 (GMT -0500)
Tomahawk | Change Station
CLOSE
Current Station
Airport
Location: Tomahawk,
Elevation: 1486 ft
Nearby Weather Stations

Elev 1486 ft 45.47 °N, 89.81 °W | Updated 14 minutes ago

Partly Cloudy
Partly Cloudy
64 °F
Feels Like 64 °F
N
7
Wind Variable Wind from West
Gusts 16 mph

Today
High -- | Low -- °F
--% Chance of Precip.
Yesterday
High -- | Low -- °F
Precip. -- in
6:40 AM 7:09 PM
Last Quarter, 42% visible
Pressure 30.07 in
Visibility 10.0 miles
Clouds Scattered Clouds 5500 ft
Dew Point 40 °F
Humidity 41%
Rainfall 0.00 in
Snow Depth Not available.
UV 2 out of 12
Pollen 4.50 out of 12
Air Quality Not available.
Flu Activity Not available.
METAR KTKV 162115Z AUTO 26006G14KT 10SM SCT055 18/05 A3007 RMK AO2 T01800045

More Conditions Fewer Conditions

Pressure 30.07 in
Visibility 10.0 miles
Clouds Scattered Clouds 5500 ft
Dew Point 40 °F
Humidity 41%
Rainfall 0.00 in
Snow Depth Not available.
UV 2 out of 12
Pollen 4.50 out of 12
Air Quality Not available.
Flu Activity Not available.
METAR KTKV 162115Z AUTO 26006G14KT 10SM SCT055 18/05 A3007 RMK AO2 T01800045

More Conditions Fewer Conditions

10-Day Weather Forecast

Almanac

Astronomy

Sep. 16, 2014 Rise Set
Actual Time 6:40 AM CDT 7:09 PM CDT
Civil Twilight 6:10 AM CDT 7:39 PM CDT
Nautical Twilight 5:35 AM CDT 8:14 PM CDT
Astronomical Twilight 4:59 AM CDT 8:50 PM CDT
Moon No Moon Rise 2:45 PM CDT
Length of Visible Light 13h 28m
Length of Day
12h 29m
Tomorrow will be 3m 8s shorter.
Last Quarter, 42% of the Moon is Illuminated
Today
Last Quarter
Sep 24
New
Oct 1
First Quarter
Oct 8
Full
Oct 15
Last Quarter

Today's Extremes

State Highs State Lows

Community

WunderPhotos

Upload Photos

1,753,888 photos uploaded!

Nearby

Snow Depth

Station Depth Elevation
No new snow has been reported.

Earthquake Activity

City Distance Mag. Time & Date
No recent earthquake activity has been reported nearby.
Minimum magnitude displayed is 2.5.

Coastal Water Temperatures

Place Temperature
No Stations Reporting

Nearby Weather Stations